Bronx, NY

11:18 PM EST en Enero 28, 2015 (GMT -0500)
South Bronx | Change Station
CLOSE
Current Station
Estación meteorológica personal
Location: New York, NY
Altura: 36 ft
Estaciones meteorológicas cercanas

Alt 36 ft 40.81 °N, 73.91 °W | Updated 42 minutes ago

Despejado
Despejado
26.4 ° F
Sensación térmica 26 ° F
N
0.7
Viento Variable Viento desde Sur
Gusts 5.6 mph

Hoy
Alta -- | Baja -- ° F
--% Posibilidad de precipitaciones
Ayer
Alta -- | Baja -- ° F
Precip. -- pul
7:09 AM 5:07 PM
Gibosa creciente, 70% visible
Presión 30.27 pul
Visibilidad 10.0 Millas
Nubes Despejado
Vientos helados 26 ° F
Punto de rocío 7 ° F
Humedad 43%
Precipitaciones -999.00 pul
Espesor de la nieve No disponible.
UV 0 de una escala de 12
Polen .10 de una escala de 12
Calidad del aire No disponible.
Flu Activity No disponible.
METAR KLGA 290351Z 35008KT 10SM CLR M03/M14 A3027 RMK AO2 SLP248 T10331144

More Conditions Fewer Conditions

Presión 30.27 pul
Visibilidad 10.0 Millas
Nubes Despejado
Vientos helados 26 ° F
Punto de rocío 7 ° F
Humedad 43%
Precipitaciones -999.00 pul
Espesor de la nieve No disponible.
UV 0 de una escala de 12
Polen .10 de una escala de 12
Calidad del aire No disponible.
Flu Activity No disponible.
METAR KLGA 290351Z 35008KT 10SM CLR M03/M14 A3027 RMK AO2 SLP248 T10331144

More Conditions Fewer Conditions

10-Day Weather Forecast

Almanac

Astronomía

Jan. 28, 2015 Salida Puesta
Hora real
Crepúsculo civil
Crepúsculo náutico
Crepúsculo astronómico
Luna
Horas de luz
Horas de luz
Tomorrow will be .
, % of the Moon is Illuminated

Extremos de hoy

Máximos del estado Bajos del estado

Community

WunderPhotos

Upload Photos

1,791,344 ¡fotos cargadas!

WunderBlogs® & News

Nearby

Calidad del aire

  Calidad del aire Índice AQ Contaminante
Not available.

Grosos de nieve

Estación Profundido Altura

Actividad de terremotos

Ciudad Distance Mag. Tiempo y dato
Magnitud mínima muestra es 2,5.

Temperaturas de aguas costeras

Lugar Temperatura

Estaciones meteorológicas cercanas